Time;durP1;ratioP1;P1;durP2;ratioP2;P2;SDS_P1;SDS_P2;PMS_P1;PMS_P2;Temp;Humidity;BMP_temperature;BMP_pressure;BME280_temperature;BME280_humidity;BME280_pressure;Samples;Min_cycle;Max_cycle;Signal;HPM_P1;HPM_P2
2023/05/17 00:08:22;;;;;;;4.45;2.65;;;;;;;;;;20995623;28;20095;-64
2023/05/17 00:18:23;;;;;;;6.38;2.47;;;;;;;;;;20995455;28;20076;-65
2023/05/17 00:28:24;;;;;;;4.53;2.17;;;;;;;;;;20994577;28;20131;-65
2023/05/17 00:38:25;;;;;;;5.35;2.13;;;;;;;;;;20994990;28;20052;-65
2023/05/17 00:48:28;;;;;;;5.68;1.92;;;;;;;;;;20995095;28;20118;-65
2023/05/17 00:58:30;;;;;;;3.38;1.92;;;;;;;;;;21008464;28;20040;-64
2023/05/17 01:08:31;;;;;;;6.18;2.00;;;;;;;;;;21008958;28;20456;-65
2023/05/17 01:18:35;;;;;;;4.03;1.45;;;;;;;;;;21007812;28;20424;-65
2023/05/17 01:28:37;;;;;;;8.30;1.70;;;;;;;;;;21009456;28;20056;-64
2023/05/17 01:38:38;;;;;;;4.38;1.80;;;;;;;;;;21007576;28;20051;-64
2023/05/17 01:48:42;;;;;;;5.55;1.45;;;;;;;;;;21006246;28;20041;-64
2023/05/17 01:58:47;;;;;;;4.78;1.60;;;;;;;;;;21006365;28;20402;-64
2023/05/17 02:08:48;;;;;;;3.33;1.23;;;;;;;;;;21002840;28;20132;-65
2023/05/17 02:18:49;;;;;;;4.88;1.40;;;;;;;;;;21004489;28;20054;-64
2023/05/17 02:28:50;;;;;;;6.72;1.45;;;;;;;;;;21004680;28;20098;-64
2023/05/17 02:38:52;;;;;;;4.55;1.10;;;;;;;;;;21002983;28;20052;-65
2023/05/17 02:48:53;;;;;;;2.90;0.80;;;;;;;;;;21000926;28;20048;-64
2023/05/17 02:58:56;;;;;;;5.60;1.10;;;;;;;;;;21001484;28;20048;-64
2023/05/17 03:08:57;;;;;;;5.00;0.88;;;;;;;;;;20999175;28;20052;-64
2023/05/17 03:18:58;;;;;;;3.95;0.77;;;;;;;;;;20999364;28;20042;-64
2023/05/17 03:28:59;;;;;;;5.55;0.90;;;;;;;;;;20997759;28;20055;-64
2023/05/17 03:39:00;;;;;;;1.90;0.80;;;;;;;;;;20998331;28;20132;-64
2023/05/17 03:49:01;;;;;;;3.47;1.13;;;;;;;;;;20997989;28;20054;-64
2023/05/17 03:59:03;;;;;;;6.03;1.10;;;;;;;;;;20997484;28;20044;-64
2023/05/17 04:09:04;;;;;;;3.55;0.77;;;;;;;;;;20997363;28;20119;-64
2023/05/17 04:19:05;;;;;;;5.65;0.82;;;;;;;;;;20996802;28;20498;-64
2023/05/17 04:29:06;;;;;;;3.97;1.05;;;;;;;;;;21007319;28;20113;-64
2023/05/17 04:39:07;;;;;;;2.85;0.88;;;;;;;;;;21011031;28;20105;-64
2023/05/17 04:49:09;;;;;;;5.10;0.52;;;;;;;;;;21010558;28;20044;-66
2023/05/17 04:59:10;;;;;;;3.80;1.10;;;;;;;;;;21010116;28;20040;-64
2023/05/17 05:09:11;;;;;;;2.85;1.00;;;;;;;;;;21009380;28;20504;-64
2023/05/17 05:19:12;;;;;;;6.88;1.10;;;;;;;;;;21008488;28;20453;-64
2023/05/17 05:29:13;;;;;;;6.03;1.10;;;;;;;;;;21006772;28;20052;-66
2023/05/17 05:39:15;;;;;;;6.68;1.10;;;;;;;;;;21006240;28;20048;-65
2023/05/17 05:49:16;;;;;;;6.50;1.20;;;;;;;;;;21007061;28;20565;-64
2023/05/17 05:59:17;;;;;;;4.28;1.23;;;;;;;;;;21006231;28;20047;-65
2023/05/17 06:09:18;;;;;;;6.82;0.85;;;;;;;;;;21005749;28;20067;-64
2023/05/17 06:19:19;;;;;;;3.90;1.15;;;;;;;;;;21004704;28;20044;-64
2023/05/17 06:29:20;;;;;;;4.00;0.80;;;;;;;;;;21002496;28;20063;-65
2023/05/17 06:39:21;;;;;;;18.45;1.48;;;;;;;;;;21003048;28;20059;-64
2023/05/17 06:49:23;;;;;;;2.40;0.82;;;;;;;;;;21001651;28;20402;-64
2023/05/17 06:59:24;;;;;;;5.40;0.93;;;;;;;;;;21000969;28;20398;-64
2023/05/17 07:09:25;;;;;;;4.50;1.10;;;;;;;;;;20999145;28;20049;-65
2023/05/17 07:19:26;;;;;;;9.55;1.52;;;;;;;;;;20998309;28;20084;-65
2023/05/17 07:29:27;;;;;;;2.95;0.95;;;;;;;;;;20997756;28;20053;-66
2023/05/17 07:39:28;;;;;;;4.65;0.65;;;;;;;;;;20998210;28;20439;-65
2023/05/17 07:49:31;;;;;;;9.10;0.80;;;;;;;;;;20997895;28;20519;-65
2023/05/17 07:59:32;;;;;;;5.40;0.93;;;;;;;;;;20996884;28;20105;-63
2023/05/17 08:09:33;;;;;;;3.45;0.75;;;;;;;;;;20995029;28;20040;-64
2023/05/17 08:19:34;;;;;;;1.98;0.68;;;;;;;;;;20995598;28;20493;-63
2023/05/17 08:29:36;;;;;;;6.50;1.10;;;;;;;;;;20996890;28;20056;-72
2023/05/17 08:39:37;;;;;;;3.75;0.70;;;;;;;;;;20994306;28;20045;-69
2023/05/17 08:49:39;;;;;;;4.10;1.02;;;;;;;;;;20995484;28;20044;-70
2023/05/17 08:59:40;;;;;;;2.67;0.90;;;;;;;;;;20994199;28;20569;-70
2023/05/17 09:09:41;;;;;;;5.10;1.17;;;;;;;;;;20993061;28;20098;-71
2023/05/17 09:19:44;;;;;;;2.83;1.00;;;;;;;;;;21007931;28;20036;-70
2023/05/17 09:29:46;;;;;;;4.40;0.98;;;;;;;;;;21006004;28;20084;-66
2023/05/17 09:39:47;;;;;;;2.72;1.23;;;;;;;;;;21006177;28;20066;-62
2023/05/17 09:49:50;;;;;;;3.45;0.95;;;;;;;;;;21004398;28;20053;-65
2023/05/17 09:59:54;;;;;;;6.50;0.82;;;;;;;;;;21006195;28;20044;-64
2023/05/17 10:09:56;;;;;;;3.97;1.20;;;;;;;;;;21005087;28;20169;-65
2023/05/17 10:19:57;;;;;;;1.73;0.77;;;;;;;;;;21004344;28;20432;-64
2023/05/17 10:29:59;;;;;;;4.97;1.08;;;;;;;;;;21000871;28;20481;-65
2023/05/17 10:40:01;;;;;;;3.55;1.10;;;;;;;;;;21000764;28;20055;-65
2023/05/17 10:50:02;;;;;;;4.57;0.90;;;;;;;;;;21001041;28;20045;-64
2023/05/17 11:00:06;;;;;;;6.30;1.17;;;;;;;;;;21000628;28;20045;-64
2023/05/17 11:10:11;;;;;;;2.65;1.00;;;;;;;;;;20998585;28;20123;-63
2023/05/17 11:20:15;;;;;;;2.65;1.20;;;;;;;;;;20998931;28;20055;-65
2023/05/17 11:30:21;;;;;;;3.80;1.20;;;;;;;;;;20997134;28;20518;-64
2023/05/17 11:40:28;;;;;;;4.68;1.02;;;;;;;;;;20996535;28;20057;-64
2023/05/17 11:50:29;;;;;;;3.63;1.13;;;;;;;;;;20997426;28;20048;-64
2023/05/17 12:00:30;;;;;;;3.00;0.88;;;;;;;;;;20997355;28;20532;-63
2023/05/17 12:10:32;;;;;;;4.13;1.30;;;;;;;;;;20995293;28;20094;-64
2023/05/17 12:20:34;;;;;;;4.10;1.33;;;;;;;;;;20996055;28;20052;-64
2023/05/17 12:30:35;;;;;;;3.00;1.02;;;;;;;;;;20994373;28;20501;-64
2023/05/17 12:40:36;;;;;;;4.47;1.45;;;;;;;;;;20994662;28;20049;-64
2023/05/17 12:50:38;;;;;;;4.93;1.27;;;;;;;;;;21005389;28;20041;-65
2023/05/17 13:00:40;;;;;;;3.42;1.60;;;;;;;;;;21010131;28;20064;-64
2023/05/17 13:10:41;;;;;;;6.15;1.98;;;;;;;;;;21006869;28;20446;-62
2023/05/17 13:20:42;;;;;;;5.13;1.88;;;;;;;;;;20993095;28;20056;-63
2023/05/17 13:30:48;;;;;;;4.50;2.35;;;;;;;;;;20981993;28;20113;-68
2023/05/17 13:40:50;;;;;;;4.72;2.63;;;;;;;;;;20993808;28;20040;-62
2023/05/17 13:50:51;;;;;;;8.02;2.85;;;;;;;;;;21041010;28;20109;-62
2023/05/17 14:00:52;;;;;;;6.13;2.90;;;;;;;;;;21030709;28;20039;-61
2023/05/17 14:10:53;;;;;;;7.85;3.63;;;;;;;;;;21008913;28;20489;-62
2023/05/17 14:20:55;;;;;;;6.75;2.97;;;;;;;;;;21000931;28;20478;-62
2023/05/17 14:30:56;;;;;;;6.88;3.63;;;;;;;;;;20986262;28;20123;-63
2023/05/17 14:40:59;;;;;;;6.35;3.25;;;;;;;;;;20994474;28;20075;-62
2023/05/17 14:51:02;;;;;;;7.80;3.97;;;;;;;;;;20994003;28;20045;-62
2023/05/17 15:01:03;;;;;;;6.53;3.95;;;;;;;;;;20995251;28;20402;-60
2023/05/17 15:11:04;;;;;;;6.53;3.80;;;;;;;;;;21000088;28;20393;-61
2023/05/17 15:21:05;;;;;;;7.15;3.95;;;;;;;;;;20999405;28;20501;-61
2023/05/17 15:31:09;;;;;;;7.60;4.13;;;;;;;;;;20998931;28;20091;-62
2023/05/17 15:41:13;;;;;;;7.68;3.95;;;;;;;;;;20998323;28;20053;-61
2023/05/17 15:51:14;;;;;;;10.70;4.80;;;;;;;;;;20997108;28;20075;-61
2023/05/17 16:01:15;;;;;;;6.85;4.40;;;;;;;;;;20996414;28;20052;-61
2023/05/17 16:11:16;;;;;;;7.38;4.63;;;;;;;;;;20996516;28;20502;-61
2023/05/17 16:21:18;;;;;;;7.70;4.38;;;;;;;;;;20999561;28;20191;-60
2023/05/17 16:31:20;;;;;;;10.95;4.65;;;;;;;;;;21012926;28;20101;-60
2023/05/17 16:41:21;;;;;;;11.43;5.13;;;;;;;;;;21010394;28;20041;-61
2023/05/17 16:51:23;;;;;;;8.35;4.20;;;;;;;;;;21007966;28;20058;-62
2023/05/17 17:01:24;;;;;;;6.65;3.97;;;;;;;;;;21006883;28;20086;-62
2023/05/17 17:11:25;;;;;;;6.22;4.28;;;;;;;;;;21007377;28;20093;-60
2023/05/17 17:21:27;;;;;;;5.90;4.13;;;;;;;;;;21005067;28;20053;-60
2023/05/17 17:31:28;;;;;;;8.35;4.90;;;;;;;;;;21004923;28;20048;-60
2023/05/17 17:41:29;;;;;;;9.68;5.00;;;;;;;;;;21006585;28;20389;-60
2023/05/17 17:51:30;;;;;;;6.45;4.07;;;;;;;;;;21005447;28;20516;-62
2023/05/17 18:01:33;;;;;;;11.05;5.00;;;;;;;;;;21004314;28;20500;-61
2023/05/17 18:11:35;;;;;;;8.45;5.18;;;;;;;;;;21003438;28;20555;-62
2023/05/17 18:21:36;;;;;;;7.63;4.97;;;;;;;;;;21002399;28;20440;-62
2023/05/17 18:31:37;;;;;;;8.90;5.13;;;;;;;;;;21001118;28;20049;-62
2023/05/17 18:41:38;;;;;;;7.95;5.15;;;;;;;;;;21000395;28;20048;-61
2023/05/17 18:51:39;;;;;;;10.70;6.38;;;;;;;;;;20998790;28;20041;-61
2023/05/17 19:01:42;;;;;;;10.70;5.45;;;;;;;;;;20999005;28;20519;-61
2023/05/17 19:11:43;;;;;;;11.52;5.30;;;;;;;;;;20997575;28;20124;-61
2023/05/17 19:21:44;;;;;;;6.90;4.05;;;;;;;;;;20996694;28;20060;-62
2023/05/17 19:31:45;;;;;;;7.38;3.33;;;;;;;;;;20996741;28;20093;-61
2023/05/17 19:41:46;;;;;;;9.27;3.05;;;;;;;;;;20996408;28;20230;-61
2023/05/17 19:51:48;;;;;;;6.70;3.08;;;;;;;;;;20996331;28;20040;-62
2023/05/17 20:01:50;;;;;;;4.43;2.53;;;;;;;;;;20995112;28;20113;-61
2023/05/17 20:11:51;;;;;;;8.95;3.17;;;;;;;;;;20995179;28;20037;-62
2023/05/17 20:21:52;;;;;;;6.22;2.58;;;;;;;;;;20994387;28;20178;-61
2023/05/17 20:31:53;;;;;;;4.07;2.25;;;;;;;;;;20995321;28;20473;-60
2023/05/17 20:41:55;;;;;;;6.85;2.38;;;;;;;;;;20995110;28;20405;-62
2023/05/17 20:52:03;;;;;;;6.15;2.28;;;;;;;;;;20993930;28;20059;-62
2023/05/17 21:02:05;;;;;;;4.33;2.40;;;;;;;;;;20993119;28;20044;-61
2023/05/17 21:12:06;;;;;;;10.60;2.00;;;;;;;;;;21002131;28;20057;-61
2023/05/17 21:22:08;;;;;;;6.90;2.72;;;;;;;;;;21007024;28;20052;-61
2023/05/17 21:32:09;;;;;;;7.28;2.30;;;;;;;;;;21006164;28;20131;-61
2023/05/17 21:42:10;;;;;;;7.35;2.28;;;;;;;;;;21007343;28;20098;-61
2023/05/17 21:52:11;;;;;;;7.25;2.35;;;;;;;;;;21004466;28;20127;-61
2023/05/17 22:02:12;;;;;;;6.72;1.92;;;;;;;;;;21004803;28;20090;-60
2023/05/17 22:12:13;;;;;;;7.30;1.77;;;;;;;;;;21004077;28;20410;-60
2023/05/17 22:22:14;;;;;;;4.80;2.00;;;;;;;;;;21002256;28;20135;-61
2023/05/17 22:32:16;;;;;;;6.50;2.35;;;;;;;;;;21003252;28;20042;-61
2023/05/17 22:42:17;;;;;;;7.10;2.40;;;;;;;;;;21001338;28;20045;-62
2023/05/17 22:52:18;;;;;;;7.13;1.88;;;;;;;;;;21001648;28;20101;-61
2023/05/17 23:02:19;;;;;;;5.45;1.98;;;;;;;;;;21000583;28;20045;-61
2023/05/17 23:12:24;;;;;;;3.40;1.60;;;;;;;;;;20998641;28;20048;-60
2023/05/17 23:22:30;;;;;;;5.95;1.73;;;;;;;;;;20997571;28;20060;-61
2023/05/17 23:32:31;;;;;;;5.05;2.17;;;;;;;;;;20998108;28;20037;-61
2023/05/17 23:42:32;;;;;;;7.10;2.38;;;;;;;;;;20998391;28;20609;-61
2023/05/17 23:52:37;;;;;;;3.42;2.05;;;;;;;;;;20996727;28;20052;-62
